METAR Data
IDs: Format: Raw Decoded Include TAF

Data at: 0223 UTC 20 Jan 2022

METAR for:KOTH (North Bend/SW Oregon, OR, US)
Text:KOTH 200156Z 13005KT 10SM OVC041 12/11 A3036 RMK AO2 SLP279 T01170106
Temperature: 11.7°C ( 53°F)
Dewpoint: 10.6°C ( 51°F) [RH = 93%]
Pressure (altimeter):30.36 inches Hg (1028.2 mb) [Sea level pressure: 1027.9 mb]
Winds:from the SE (130 degrees) at 6 MPH (5 knots; 2.6 m/s)
Visibility:10 or more sm (16+ km)
Ceiling:4100 feet AGL
Clouds: overcast cloud deck at 4100 feet AGL
Text:KOTH 200056Z 00000KT 10SM SCT031 BKN047 OVC090 12/11 A3036 RMK AO2 SLP279 T01220106
Temperature: 12.2°C ( 54°F)
Dewpoint: 10.6°C ( 51°F) [RH = 90%]
Pressure (altimeter):30.36 inches Hg (1028.2 mb) [Sea level pressure: 1027.9 mb]
Winds:calm
Visibility:10 or more sm (16+ km)
Ceiling:4700 feet AGL
Clouds: scattered clouds at 3100 feet AGL, broken clouds at 4700 feet AGL, overcast cloud deck at 9000 feet AGL

METAR for:KAST (Astoria Rgnl, OR, US)
Text:KAST 200221Z AUTO 17007KT 5SM BR SCT007 OVC016 12/10 A3025 RMK AO2 RAE03 CIG 008 RWY 08 P0001 T01170100
Temperature: 11.7°C ( 53°F)
Dewpoint: 10.0°C ( 50°F) [RH = 89%]
Pressure (altimeter):30.25 inches Hg (1024.5 mb)
Winds:from the S (170 degrees) at 8 MPH (7 knots; 3.6 m/s)
Visibility: 5 sm ( 8 km)
Ceiling:1600 feet AGL
Clouds: scattered clouds at 700 feet AGL, overcast cloud deck at 1600 feet AGL
Weather:BR (mist)
QC Flag:automated observation with no human augmentation
Text:KAST 200155Z AUTO 18006KT 3SM -RA BR BKN007 OVC013 11/10 A3026 RMK AO2 SLP245 P0004 T01110100
Temperature: 11.1°C ( 52°F)
Dewpoint: 10.0°C ( 50°F) [RH = 93%]
Pressure (altimeter):30.26 inches Hg (1024.8 mb) [Sea level pressure: 1024.5 mb]
Winds:from the S (180 degrees) at 7 MPH (6 knots; 3.1 m/s)
Visibility: 3 sm ( 5 km)
Ceiling:700 feet AGL
Clouds: broken clouds at 700 feet AGL, overcast cloud deck at 1300 feet AGL
Weather:-RA BR (light rain, mist)
QC Flag:automated observation with no human augmentation
Text:KAST 200149Z AUTO 19005KT 3SM -RA BR BKN007 OVC013 11/10 A3026 RMK AO2 P0004
Temperature: 11.0°C ( 52°F)
Dewpoint: 10.0°C ( 50°F) [RH = 94%]
Pressure (altimeter):30.26 inches Hg (1024.8 mb)
Winds:from the S (190 degrees) at 6 MPH (5 knots; 2.6 m/s)
Visibility: 3 sm ( 5 km)
Ceiling:700 feet AGL
Clouds: broken clouds at 700 feet AGL, overcast cloud deck at 1300 feet AGL
Weather:-RA BR (light rain, mist)
QC Flag:automated observation with no human augmentation
Text:KAST 200114Z AUTO 17004KT 2SM -RA BR FEW008 OVC012 11/10 A3025 RMK AO2 P0002 T01110100
Temperature: 11.1°C ( 52°F)
Dewpoint: 10.0°C ( 50°F) [RH = 93%]
Pressure (altimeter):30.25 inches Hg (1024.5 mb)
Winds:from the S (170 degrees) at 5 MPH (4 knots; 2.1 m/s)
Visibility: 2.00 sm ( 3.22 km)
Ceiling:1200 feet AGL
Clouds: few clouds at 800 feet AGL, overcast cloud deck at 1200 feet AGL
Weather:-RA BR (light rain, mist)
QC Flag:automated observation with no human augmentation
Text:KAST 200059Z AUTO VRB03KT 1 3/4SM -RA BR SCT008 OVC012 11/10 A3025 RMK AO2 P0000 T01110100
Temperature: 11.1°C ( 52°F)
Dewpoint: 10.0°C ( 50°F) [RH = 93%]
Pressure (altimeter):30.25 inches Hg (1024.5 mb)
Winds:variable direction winds at 3 MPH (3 knots; 1.5 m/s)
Visibility: 1.75 sm ( 2.82 km)
Ceiling:1200 feet AGL
Clouds: scattered clouds at 800 feet AGL, overcast cloud deck at 1200 feet AGL
Weather:-RA BR (light rain, mist)
QC Flag:automated observation with no human augmentation
Text:KAST 200055Z AUTO 17003KT 2SM -RA BR OVC010 11/10 A3025 RMK AO2 SLP243 P0004 T01110100
Temperature: 11.1°C ( 52°F)
Dewpoint: 10.0°C ( 50°F) [RH = 93%]
Pressure (altimeter):30.25 inches Hg (1024.5 mb) [Sea level pressure: 1024.3 mb]
Winds:from the S (170 degrees) at 3 MPH (3 knots; 1.5 m/s)
Visibility: 2.00 sm ( 3.22 km)
Ceiling:1000 feet AGL
Clouds: overcast cloud deck at 1000 feet AGL
Weather:-RA BR (light rain, mist)
QC Flag:automated observation with no human augmentation

METAR for:KPDX (Portland Intl Arpt, OR, US)
Text:KPDX 200213Z 11010KT 2SM -DZ OVC010 07/06 A3032 RMK AO2 SFC VIS 5 P0001 T00720056
Temperature: 7.2°C ( 45°F)
Dewpoint: 5.6°C ( 42°F) [RH = 90%]
Pressure (altimeter):30.32 inches Hg (1026.8 mb)
Winds:from the ESE (110 degrees) at 12 MPH (10 knots; 5.1 m/s)
Visibility: 2.00 sm ( 3.22 km)
Ceiling:1000 feet AGL
Clouds: overcast cloud deck at 1000 feet AGL
Weather:-DZ (light drizzle)
Text:KPDX 200153Z 12011KT 2SM -DZ OVC009 07/06 A3032 RMK AO2 SFC VIS 4 SLP266 P0001 T00720056
Temperature: 7.2°C ( 45°F)
Dewpoint: 5.6°C ( 42°F) [RH = 90%]
Pressure (altimeter):30.32 inches Hg (1026.8 mb) [Sea level pressure: 1026.6 mb]
Winds:from the ESE (120 degrees) at 13 MPH (11 knots; 5.7 m/s)
Visibility: 2.00 sm ( 3.22 km)
Ceiling:900 feet AGL
Clouds: overcast cloud deck at 900 feet AGL
Weather:-DZ (light drizzle)
Text:KPDX 200053Z 12011KT 2SM -DZ OVC009 07/06 A3031 RMK AO2 SFC VIS 3 SLP262 P0002 T00720061
Temperature: 7.2°C ( 45°F)
Dewpoint: 6.1°C ( 43°F) [RH = 93%]
Pressure (altimeter):30.31 inches Hg (1026.5 mb) [Sea level pressure: 1026.2 mb]
Winds:from the ESE (120 degrees) at 13 MPH (11 knots; 5.7 m/s)
Visibility: 2.00 sm ( 3.22 km)
Ceiling:900 feet AGL
Clouds: overcast cloud deck at 900 feet AGL
Weather:-DZ (light drizzle)
Text:KPDX 200030Z 12012KT 2SM -DZ OVC009 07/06 A3031 RMK AO2 P0001 T00720061
Temperature: 7.2°C ( 45°F)
Dewpoint: 6.1°C ( 43°F) [RH = 93%]
Pressure (altimeter):30.31 inches Hg (1026.5 mb)
Winds:from the ESE (120 degrees) at 14 MPH (12 knots; 6.2 m/s)
Visibility: 2.00 sm ( 3.22 km)
Ceiling:900 feet AGL
Clouds: overcast cloud deck at 900 feet AGL
Weather:-DZ (light drizzle)

METAR for:KDLS (The Dalles Muni, OR, US)
Text:KDLS 200153Z AUTO 07004KT 10SM OVC018 06/02 A3039 RMK AO2 SLP294 T00560022
Temperature: 5.6°C ( 42°F)
Dewpoint: 2.2°C ( 36°F) [RH = 79%]
Pressure (altimeter):30.39 inches Hg (1029.2 mb) [Sea level pressure: 1029.4 mb]
Winds:from the ENE (70 degrees) at 5 MPH (4 knots; 2.1 m/s)
Visibility:10 or more sm (16+ km)
Ceiling:1800 feet AGL
Clouds: overcast cloud deck at 1800 feet AGL
QC Flag:automated observation with no human augmentation
Text:KDLS 200053Z AUTO 06003KT 10SM OVC018 06/02 A3038 RMK AO2 SLP291 T00560022
Temperature: 5.6°C ( 42°F)
Dewpoint: 2.2°C ( 36°F) [RH = 79%]
Pressure (altimeter):30.38 inches Hg (1028.9 mb) [Sea level pressure: 1029.1 mb]
Winds:from the ENE (60 degrees) at 3 MPH (3 knots; 1.5 m/s)
Visibility:10 or more sm (16+ km)
Ceiling:1800 feet AGL
Clouds: overcast cloud deck at 1800 feet AGL
QC Flag:automated observation with no human augmentation

METAR for:KPSC (Pasco/Tri Cities Arp, WA, US)
Text:KPSC 200153Z 31004KT 8SM OVC007 01/00 A3043 RMK AO2 SLP310 T00110000
Temperature: 1.1°C ( 34°F)
Dewpoint: 0.0°C ( 32°F) [RH = 92%]
Pressure (altimeter):30.43 inches Hg (1030.6 mb) [Sea level pressure: 1031.0 mb]
Winds:from the NW (310 degrees) at 5 MPH (4 knots; 2.1 m/s)
Visibility: 8 sm ( 13 km)
Ceiling:700 feet AGL
Clouds: overcast cloud deck at 700 feet AGL
Text:KPSC 200150Z 31003KT 8SM OVC007 01/00 A3043 RMK AO2
Temperature: 1.0°C ( 34°F)
Dewpoint: 0.0°C ( 32°F) [RH = 93%]
Pressure (altimeter):30.43 inches Hg (1030.6 mb)
Winds:from the NW (310 degrees) at 3 MPH (3 knots; 1.5 m/s)
Visibility: 8 sm ( 13 km)
Ceiling:700 feet AGL
Clouds: overcast cloud deck at 700 feet AGL
Text:KPSC 200053Z 32004KT 10SM OVC008 01/M01 A3043 RMK AO2 SLP307 T00111006
Temperature: 1.1°C ( 34°F)
Dewpoint: -0.6°C ( 31°F) [RH = 88%]
Pressure (altimeter):30.43 inches Hg (1030.6 mb) [Sea level pressure: 1030.7 mb]
Winds:from the NW (320 degrees) at 5 MPH (4 knots; 2.1 m/s)
Visibility:10 or more sm (16+ km)
Ceiling:800 feet AGL
Clouds: overcast cloud deck at 800 feet AGL

METAR for:KHRI (Hermiston Muni, OR, US)
Text:KHRI 200205Z AUTO 06006KT 6SM BR SCT028 OVC041 02/01 A3039 RMK AO2 T00220011
Temperature: 2.2°C ( 36°F)
Dewpoint: 1.1°C ( 34°F) [RH = 92%]
Pressure (altimeter):30.39 inches Hg (1029.2 mb)
Winds:from the ENE (60 degrees) at 7 MPH (6 knots; 3.1 m/s)
Visibility: 6 sm ( 10 km)
Ceiling:4100 feet AGL
Clouds: scattered clouds at 2800 feet AGL, overcast cloud deck at 4100 feet AGL
Weather:BR (mist)
QC Flag:automated observation with no human augmentation
Text:KHRI 200153Z AUTO 06005KT 6SM BR BKN028 OVC037 02/01 A3039 RMK AO2 SLP297 T00220011
Temperature: 2.2°C ( 36°F)
Dewpoint: 1.1°C ( 34°F) [RH = 92%]
Pressure (altimeter):30.39 inches Hg (1029.2 mb) [Sea level pressure: 1029.7 mb]
Winds:from the ENE (60 degrees) at 6 MPH (5 knots; 2.6 m/s)
Visibility: 6 sm ( 10 km)
Ceiling:2800 feet AGL
Clouds: broken clouds at 2800 feet AGL, overcast cloud deck at 3700 feet AGL
Weather:BR (mist)
QC Flag:automated observation with no human augmentation
Text:KHRI 200146Z AUTO 06007KT 6SM BR BKN029 OVC036 02/01 A3039 RMK AO2 T00220011
Temperature: 2.2°C ( 36°F)
Dewpoint: 1.1°C ( 34°F) [RH = 92%]
Pressure (altimeter):30.39 inches Hg (1029.2 mb)
Winds:from the ENE (60 degrees) at 8 MPH (7 knots; 3.6 m/s)
Visibility: 6 sm ( 10 km)
Ceiling:2900 feet AGL
Clouds: broken clouds at 2900 feet AGL, overcast cloud deck at 3600 feet AGL
Weather:BR (mist)
QC Flag:automated observation with no human augmentation
Text:KHRI 200053Z AUTO 06009KT 8SM SCT011 SCT032 OVC055 02/01 A3039 RMK AO2 SLP295 T00220011
Temperature: 2.2°C ( 36°F)
Dewpoint: 1.1°C ( 34°F) [RH = 92%]
Pressure (altimeter):30.39 inches Hg (1029.2 mb) [Sea level pressure: 1029.5 mb]
Winds:from the ENE (60 degrees) at 10 MPH (9 knots; 4.6 m/s)
Visibility: 8 sm ( 13 km)
Ceiling:5500 feet AGL
Clouds: scattered clouds at 1100 feet AGL, scattered clouds at 3200 feet AGL, overcast cloud deck at 5500 feet AGL
QC Flag:automated observation with no human augmentation

METAR for:KGEG (Spokane Intl, WA, US)
Text:KGEG 200153Z 19005KT 2SM BR FEW002 OVC005 01/00 A3034 RMK AO2 SFC VIS 4 SLP295 T00110000
Temperature: 1.1°C ( 34°F)
Dewpoint: 0.0°C ( 32°F) [RH = 92%]
Pressure (altimeter):30.34 inches Hg (1027.5 mb) [Sea level pressure: 1029.5 mb]
Winds:from the S (190 degrees) at 6 MPH (5 knots; 2.6 m/s)
Visibility: 2.00 sm ( 3.22 km)
Ceiling:500 feet AGL
Clouds: few clouds at 200 feet AGL, overcast cloud deck at 500 feet AGL
Weather:BR (mist)
Text:KGEG 200053Z 16005KT 3SM BR FEW002 OVC005 02/00 A3034 RMK AO2 SLP293 T00170000
Temperature: 1.7°C ( 35°F)
Dewpoint: 0.0°C ( 32°F) [RH = 88%]
Pressure (altimeter):30.34 inches Hg (1027.5 mb) [Sea level pressure: 1029.3 mb]
Winds:from the SSE (160 degrees) at 6 MPH (5 knots; 2.6 m/s)
Visibility: 3 sm ( 5 km)
Ceiling:500 feet AGL
Clouds: few clouds at 200 feet AGL, overcast cloud deck at 500 feet AGL
Weather:BR (mist)